sensor_id;sensor_type;location;lat;lon;timestamp;pressure;altitude;pressure_sealevel;temperature;humidity
55538;BME280;41383;51.418;7.286;2022-11-04T00:01:14;98442.53;;;11.37;83.00
55538;BME280;41383;51.418;7.286;2022-11-04T00:03:39;98438.59;;;11.43;82.78
55538;BME280;41383;51.418;7.286;2022-11-04T00:06:04;98453.34;;;11.42;82.40
55538;BME280;41383;51.418;7.286;2022-11-04T00:08:33;98469.13;;;11.45;82.39
55538;BME280;41383;51.418;7.286;2022-11-04T00:10:59;98456.56;;;11.16;83.31
55538;BME280;41383;51.418;7.286;2022-11-04T00:13:44;98470.22;;;11.30;83.19
55538;BME280;41383;51.418;7.286;2022-11-04T00:16:10;98474.44;;;11.22;83.22
55538;BME280;41383;51.418;7.286;2022-11-04T00:19:03;98470.53;;;11.28;83.19
55538;BME280;41383;51.418;7.286;2022-11-04T00:21:28;98478.09;;;11.31;82.76
55538;BME280;41383;51.418;7.286;2022-11-04T00:24:13;98476.88;;;11.24;82.89
55538;BME280;41383;51.418;7.286;2022-11-04T00:27:16;98474.31;;;11.13;82.44
55538;BME280;41383;51.418;7.286;2022-11-04T00:30:00;98489.19;;;11.21;82.07
55538;BME280;41383;51.418;7.286;2022-11-04T00:32:30;98500.03;;;11.40;81.03
55538;BME280;41383;51.418;7.286;2022-11-04T00:35:15;98501.63;;;11.27;81.51
55538;BME280;41383;51.418;7.286;2022-11-04T00:37:41;98498.06;;;11.13;81.85
55538;BME280;41383;51.418;7.286;2022-11-04T00:40:09;98497.97;;;11.18;81.35
55538;BME280;41383;51.418;7.286;2022-11-04T00:42:34;98498.16;;;11.07;81.21
55538;BME280;41383;51.418;7.286;2022-11-04T00:45:00;98506.44;;;11.02;81.73
55538;BME280;41383;51.418;7.286;2022-11-04T00:47:25;98504.47;;;11.22;81.04
55538;BME280;41383;51.418;7.286;2022-11-04T00:49:51;98498.19;;;11.21;80.74
55538;BME280;41383;51.418;7.286;2022-11-04T00:52:17;98516.75;;;11.05;81.06
55538;BME280;41383;51.418;7.286;2022-11-04T00:54:42;98502.19;;;10.96;81.24
55538;BME280;41383;51.418;7.286;2022-11-04T00:57:11;98518.19;;;10.83;81.38
55538;BME280;41383;51.418;7.286;2022-11-04T00:59:37;98504.47;;;10.89;81.06
55538;BME280;41383;51.418;7.286;2022-11-04T01:02:02;98529.59;;;10.85;81.23
55538;BME280;41383;51.418;7.286;2022-11-04T01:04:28;98519.13;;;10.93;81.18
55538;BME280;41383;51.418;7.286;2022-11-04T01:06:53;98527.13;;;11.03;80.91
55538;BME280;41383;51.418;7.286;2022-11-04T01:09:19;98546.31;;;10.98;81.38
55538;BME280;41383;51.418;7.286;2022-11-04T01:11:44;98551.31;;;10.91;80.64
55538;BME280;41383;51.418;7.286;2022-11-04T01:14:10;98538.66;;;10.81;81.12
55538;BME280;41383;51.418;7.286;2022-11-04T01:16:35;98549.22;;;10.88;81.33
55538;BME280;41383;51.418;7.286;2022-11-04T01:19:01;98554.06;;;10.91;81.36
55538;BME280;41383;51.418;7.286;2022-11-04T01:21:27;98553.31;;;11.04;81.12
55538;BME280;41383;51.418;7.286;2022-11-04T01:23:53;98554.66;;;10.88;81.35
55538;BME280;41383;51.418;7.286;2022-11-04T01:26:21;98552.66;;;10.93;81.49
55538;BME280;41383;51.418;7.286;2022-11-04T01:28:47;98550.22;;;10.92;81.47
55538;BME280;41383;51.418;7.286;2022-11-04T01:31:18;98563.09;;;11.05;81.24
55538;BME280;41383;51.418;7.286;2022-11-04T01:33:45;98578.06;;;10.89;81.62
55538;BME280;41383;51.418;7.286;2022-11-04T01:36:11;98576.06;;;10.94;81.59
55538;BME280;41383;51.418;7.286;2022-11-04T01:38:37;98573.00;;;11.01;81.14
55538;BME280;41383;51.418;7.286;2022-11-04T01:41:03;98585.22;;;11.04;81.57
55538;BME280;41383;51.418;7.286;2022-11-04T01:43:48;98587.59;;;10.72;82.41
55538;BME280;41383;51.418;7.286;2022-11-04T01:46:45;98587.75;;;10.61;83.26
55538;BME280;41383;51.418;7.286;2022-11-04T01:49:17;98575.22;;;10.80;82.40
55538;BME280;41383;51.418;7.286;2022-11-04T01:51:48;98578.53;;;10.77;82.30
55538;BME280;41383;51.418;7.286;2022-11-04T01:54:14;98576.78;;;10.86;82.59
55538;BME280;41383;51.418;7.286;2022-11-04T01:56:41;98588.09;;;10.74;82.86
55538;BME280;41383;51.418;7.286;2022-11-04T01:59:14;98588.41;;;10.72;82.45
55538;BME280;41383;51.418;7.286;2022-11-04T02:01:42;98592.69;;;10.79;82.71
55538;BME280;41383;51.418;7.286;2022-11-04T02:04:08;98595.28;;;10.70;82.84
55538;BME280;41383;51.418;7.286;2022-11-04T02:06:50;98595.28;;;10.70;82.76
55538;BME280;41383;51.418;7.286;2022-11-04T02:09:17;98598.94;;;10.60;83.06
55538;BME280;41383;51.418;7.286;2022-11-04T02:11:42;98608.22;;;10.78;82.87
55538;BME280;41383;51.418;7.286;2022-11-04T02:14:27;98604.38;;;10.60;82.78
55538;BME280;41383;51.418;7.286;2022-11-04T02:16:54;98604.63;;;10.64;82.89
55538;BME280;41383;51.418;7.286;2022-11-04T02:30:46;98600.22;;;10.68;82.10
55538;BME280;41383;51.418;7.286;2022-11-04T02:33:19;98597.09;;;10.55;82.44
55538;BME280;41383;51.418;7.286;2022-11-04T02:35:58;98597.31;;;10.59;82.75
55538;BME280;41383;51.418;7.286;2022-11-04T02:38:29;98588.09;;;10.74;81.57
55538;BME280;41383;51.418;7.286;2022-11-04T02:41:25;98581.53;;;10.56;82.18
55538;BME280;41383;51.418;7.286;2022-11-04T02:44:20;98580.59;;;10.66;82.37
55538;BME280;41383;51.418;7.286;2022-11-04T02:49:20;98587.59;;;10.53;82.87
55538;BME280;41383;51.418;7.286;2022-11-04T02:51:56;98587.81;;;10.56;82.34
55538;BME280;41383;51.418;7.286;2022-11-04T02:54:30;98589.53;;;10.71;81.27
55538;BME280;41383;51.418;7.286;2022-11-04T02:56:59;98590.78;;;10.79;80.96
55538;BME280;41383;51.418;7.286;2022-11-04T02:59:36;98590.91;;;10.69;80.75
55538;BME280;41383;51.418;7.286;2022-11-04T03:02:06;98595.47;;;10.54;81.75
55538;BME280;41383;51.418;7.286;2022-11-04T03:04:39;98600.25;;;10.62;82.08
55538;BME280;41383;51.418;7.286;2022-11-04T03:07:07;98611.81;;;10.54;81.98
55538;BME280;41383;51.418;7.286;2022-11-04T03:09:36;98598.16;;;10.35;82.32
55538;BME280;41383;51.418;7.286;2022-11-04T03:12:08;98598.59;;;10.42;82.08
55538;BME280;41383;51.418;7.286;2022-11-04T03:14:39;98595.56;;;10.44;81.68
55538;BME280;41383;51.418;7.286;2022-11-04T03:17:09;98600.91;;;10.54;81.36
55538;BME280;41383;51.418;7.286;2022-11-04T03:19:48;98597.88;;;10.56;80.62
55538;BME280;41383;51.418;7.286;2022-11-04T03:22:20;98603.59;;;10.35;81.15
55538;BME280;41383;51.418;7.286;2022-11-04T03:24:47;98599.41;;;10.43;81.29
55538;BME280;41383;51.418;7.286;2022-11-04T03:35:10;98613.69;;;10.34;80.74
55538;BME280;41383;51.418;7.286;2022-11-04T03:37:36;98613.22;;;10.27;81.08
55538;BME280;41383;51.418;7.286;2022-11-04T03:40:02;98615.34;;;10.55;80.47
55538;BME280;41383;51.418;7.286;2022-11-04T03:42:29;98615.66;;;10.53;80.66
55538;BME280;41383;51.418;7.286;2022-11-04T03:44:56;98609.84;;;10.35;80.69
55538;BME280;41383;51.418;7.286;2022-11-04T03:47:25;98616.31;;;10.39;80.26
55538;BME280;41383;51.418;7.286;2022-11-04T03:50:40;98615.44;;;10.25;80.46
55538;BME280;41383;51.418;7.286;2022-11-04T03:52:40;98618.00;;;10.35;80.23
55538;BME280;41383;51.418;7.286;2022-11-04T03:55:07;98615.44;;;10.25;80.21
55538;BME280;41383;51.418;7.286;2022-11-04T03:57:42;98603.72;;;10.24;79.90
55538;BME280;41383;51.418;7.286;2022-11-04T04:00:15;98610.88;;;10.15;80.10
55538;BME280;41383;51.418;7.286;2022-11-04T04:03:15;98617.75;;;10.12;80.24
55538;BME280;41383;51.418;7.286;2022-11-04T04:05:54;98611.16;;;10.19;80.07
55538;BME280;41383;51.418;7.286;2022-11-04T04:08:43;98615.31;;;10.11;80.49
55538;BME280;41383;51.418;7.286;2022-11-04T04:13:49;98629.69;;;10.16;80.53
55538;BME280;41383;51.418;7.286;2022-11-04T04:16:20;98629.91;;;10.20;80.29
55538;BME280;41383;51.418;7.286;2022-11-04T04:18:54;98634.94;;;10.32;80.02
55538;BME280;41383;51.418;7.286;2022-11-04T04:21:27;98637.34;;;10.39;79.50
55538;BME280;41383;51.418;7.286;2022-11-04T04:23:55;98628.75;;;10.26;79.57
55538;BME280;41383;51.418;7.286;2022-11-04T04:26:41;98629.44;;;10.37;79.19
55538;BME280;41383;51.418;7.286;2022-11-04T04:29:26;98628.69;;;10.32;79.20
55538;BME280;41383;51.418;7.286;2022-11-04T04:31:53;98620.88;;;10.49;78.52
55538;BME280;41383;51.418;7.286;2022-11-04T04:34:27;98622.81;;;10.44;78.41
55538;BME280;41383;51.418;7.286;2022-11-04T04:39:29;98630.63;;;10.31;78.65
55538;BME280;41383;51.418;7.286;2022-11-04T04:42:15;98627.81;;;10.36;78.44
55538;BME280;41383;51.418;7.286;2022-11-04T04:45:01;98632.88;;;10.24;79.37
55538;BME280;41383;51.418;7.286;2022-11-04T04:47:43;98637.16;;;10.30;78.91
55538;BME280;41383;51.418;7.286;2022-11-04T04:50:12;98646.16;;;10.31;78.92
55538;BME280;41383;51.418;7.286;2022-11-04T04:52:44;98656.66;;;10.37;78.84
55538;BME280;41383;51.418;7.286;2022-11-04T04:55:11;98651.38;;;10.27;78.67
55538;BME280;41383;51.418;7.286;2022-11-04T04:57:36;98662.72;;;10.34;78.61
55538;BME280;41383;51.418;7.286;2022-11-04T05:00:03;98664.50;;;10.49;78.00
55538;BME280;41383;51.418;7.286;2022-11-04T05:02:29;98663.31;;;10.31;77.92
55538;BME280;41383;51.418;7.286;2022-11-04T05:04:54;98669.66;;;10.46;77.63
55538;BME280;41383;51.418;7.286;2022-11-04T05:07:20;98664.22;;;10.46;77.60
55538;BME280;41383;51.418;7.286;2022-11-04T05:09:46;98661.22;;;10.47;77.42
55538;BME280;41383;51.418;7.286;2022-11-04T05:12:11;98675.69;;;10.43;77.19
55538;BME280;41383;51.418;7.286;2022-11-04T05:14:36;98672.69;;;10.44;77.30
55538;BME280;41383;51.418;7.286;2022-11-04T05:17:02;98677.59;;;10.18;78.02
55538;BME280;41383;51.418;7.286;2022-11-04T05:19:27;98675.94;;;10.46;77.42
55538;BME280;41383;51.418;7.286;2022-11-04T05:21:53;98681.63;;;10.50;76.77
55538;BME280;41383;51.418;7.286;2022-11-04T05:24:18;98678.22;;;10.09;77.60
55538;BME280;41383;51.418;7.286;2022-11-04T05:26:43;98693.13;;;10.17;77.75
55538;BME280;41383;51.418;7.286;2022-11-04T05:29:08;98690.59;;;10.26;77.61
55538;BME280;41383;51.418;7.286;2022-11-04T05:31:34;98690.41;;;10.42;76.91
55538;BME280;41383;51.418;7.286;2022-11-04T05:34:00;98692.63;;;10.39;76.50
55538;BME280;41383;51.418;7.286;2022-11-04T05:36:25;98690.91;;;10.49;76.68
55538;BME280;41383;51.418;7.286;2022-11-04T05:38:52;98687.16;;;10.39;76.53
55538;BME280;41383;51.418;7.286;2022-11-04T05:41:19;98689.97;;;10.34;76.79
55538;BME280;41383;51.418;7.286;2022-11-04T05:43:58;98698.53;;;10.47;76.42
55538;BME280;41383;51.418;7.286;2022-11-04T05:46:24;98698.31;;;10.43;76.68
55538;BME280;41383;51.418;7.286;2022-11-04T05:48:50;98701.53;;;10.50;75.97
55538;BME280;41383;51.418;7.286;2022-11-04T05:51:18;98704.25;;;10.50;76.04
55538;BME280;41383;51.418;7.286;2022-11-04T05:53:45;98705.59;;;10.48;75.95
55538;BME280;41383;51.418;7.286;2022-11-04T05:56:10;98711.06;;;10.48;76.28
55538;BME280;41383;51.418;7.286;2022-11-04T05:58:35;98714.28;;;10.55;76.21
55538;BME280;41383;51.418;7.286;2022-11-04T06:01:24;98714.81;;;10.57;75.34
55538;BME280;41383;51.418;7.286;2022-11-04T06:03:50;98720.72;;;10.65;75.37
55538;BME280;41383;51.418;7.286;2022-11-04T06:06:16;98722.91;;;10.62;75.33
55538;BME280;41383;51.418;7.286;2022-11-04T06:08:41;98716.19;;;10.55;75.04
55538;BME280;41383;51.418;7.286;2022-11-04T06:11:06;98713.13;;;10.61;75.07
55538;BME280;41383;51.418;7.286;2022-11-04T06:13:32;98714.81;;;10.57;75.23
55538;BME280;41383;51.418;7.286;2022-11-04T06:15:57;98719.66;;;10.60;75.43
55538;BME280;41383;51.418;7.286;2022-11-04T06:18:22;98716.66;;;10.62;75.23
55538;BME280;41383;51.418;7.286;2022-11-04T06:20:47;98718.41;;;10.53;75.40
55538;BME280;41383;51.418;7.286;2022-11-04T06:23:13;98717.25;;;10.59;75.23
55538;BME280;41383;51.418;7.286;2022-11-04T06:25:38;98720.66;;;10.70;74.49
55538;BME280;41383;51.418;7.286;2022-11-04T06:28:03;98722.78;;;10.73;74.64
55538;BME280;41383;51.418;7.286;2022-11-04T06:30:28;98731.94;;;10.58;74.45
55538;BME280;41383;51.418;7.286;2022-11-04T06:32:54;98737.88;;;10.65;74.71
55538;BME280;41383;51.418;7.286;2022-11-04T06:35:19;98737.25;;;10.73;74.34
55538;BME280;41383;51.418;7.286;2022-11-04T06:37:44;98744.09;;;10.71;74.74
55538;BME280;41383;51.418;7.286;2022-11-04T06:40:10;98758.22;;;10.73;74.51
55538;BME280;41383;51.418;7.286;2022-11-04T06:42:35;98752.25;;;10.71;74.29
55538;BME280;41383;51.418;7.286;2022-11-04T06:45:00;98755.50;;;10.73;74.23
55538;BME280;41383;51.418;7.286;2022-11-04T06:47:26;98756.97;;;10.65;74.54
55538;BME280;41383;51.418;7.286;2022-11-04T06:49:51;98761.38;;;10.85;74.22
55538;BME280;41383;51.418;7.286;2022-11-04T06:52:16;98757.94;;;10.74;74.29
55538;BME280;41383;51.418;7.286;2022-11-04T06:54:41;98765.28;;;10.74;74.27
55538;BME280;41383;51.418;7.286;2022-11-04T06:57:09;98761.06;;;10.62;74.72
55538;BME280;41383;51.418;7.286;2022-11-04T06:59:35;98770.22;;;10.72;74.38
55538;BME280;41383;51.418;7.286;2022-11-04T07:02:00;98770.81;;;10.69;74.44
55538;BME280;41383;51.418;7.286;2022-11-04T07:04:26;98783.00;;;10.77;73.70
55538;BME280;41383;51.418;7.286;2022-11-04T07:06:51;98777.44;;;10.87;73.45
55538;BME280;41383;51.418;7.286;2022-11-04T07:09:17;98789.19;;;10.82;73.50
55538;BME280;41383;51.418;7.286;2022-11-04T07:11:43;98786.03;;;10.75;74.26
55538;BME280;41383;51.418;7.286;2022-11-04T07:14:09;98784.56;;;10.83;73.51
55538;BME280;41383;51.418;7.286;2022-11-04T07:16:35;98791.91;;;10.82;73.67
55538;BME280;41383;51.418;7.286;2022-11-04T07:19:00;98791.53;;;10.70;74.21
55538;BME280;41383;51.418;7.286;2022-11-04T07:21:26;98788.16;;;10.78;73.98
55538;BME280;41383;51.418;7.286;2022-11-04T07:23:51;98797.84;;;10.90;73.93
55538;BME280;41383;51.418;7.286;2022-11-04T07:26:17;98801.09;;;10.92;73.96
55538;BME280;41383;51.418;7.286;2022-11-04T07:28:42;98806.50;;;10.97;73.44
55538;BME280;41383;51.418;7.286;2022-11-04T07:31:09;98814.75;;;10.92;73.62
55538;BME280;41383;51.418;7.286;2022-11-04T07:33:34;98819.78;;;10.79;74.01
55538;BME280;41383;51.418;7.286;2022-11-04T07:36:07;98830.50;;;10.70;74.47
55538;BME280;41383;51.418;7.286;2022-11-04T07:38:34;98826.63;;;10.77;74.21
55538;BME280;41383;51.418;7.286;2022-11-04T07:40:59;98828.59;;;10.95;73.42
55538;BME280;41383;51.418;7.286;2022-11-04T07:43:26;98823.16;;;10.95;73.69
55538;BME280;41383;51.418;7.286;2022-11-04T07:46:03;98830.59;;;10.90;74.05
55538;BME280;41383;51.418;7.286;2022-11-04T07:48:28;98830.88;;;10.88;74.15
55538;BME280;41383;51.418;7.286;2022-11-04T07:50:56;98834.22;;;10.80;74.58
55538;BME280;41383;51.418;7.286;2022-11-04T07:53:21;98848.78;;;10.70;74.87
55538;BME280;41383;51.418;7.286;2022-11-04T07:55:46;98844.75;;;10.92;74.11
55538;BME280;41383;51.418;7.286;2022-11-04T07:58:15;98850.75;;;10.89;73.97
55538;BME280;41383;51.418;7.286;2022-11-04T08:00:40;98853.06;;;10.76;74.66
55538;BME280;41383;51.418;7.286;2022-11-04T08:03:05;98848.00;;;10.94;74.52
55538;BME280;41383;51.418;7.286;2022-11-04T08:05:30;98850.22;;;10.86;74.28
55538;BME280;41383;51.418;7.286;2022-11-04T08:07:56;98854.06;;;10.85;74.34
55538;BME280;41383;51.418;7.286;2022-11-04T08:10:22;98854.13;;;11.05;74.29
55538;BME280;41383;51.418;7.286;2022-11-04T08:12:47;98843.06;;;10.96;74.54
55538;BME280;41383;51.418;7.286;2022-11-04T08:15:12;98850.97;;;11.17;73.96
55538;BME280;41383;51.418;7.286;2022-11-04T08:17:38;98850.88;;;11.27;73.61
55538;BME280;41383;51.418;7.286;2022-11-04T08:20:04;98852.72;;;11.32;73.30
55538;BME280;41383;51.418;7.286;2022-11-04T08:22:29;98854.19;;;11.24;72.80
55538;BME280;41383;51.418;7.286;2022-11-04T08:24:55;98851.81;;;11.17;73.17
55538;BME280;41383;51.418;7.286;2022-11-04T08:27:20;98849.25;;;11.26;73.06
55538;BME280;41383;51.418;7.286;2022-11-04T08:29:46;98851.28;;;11.15;73.72
55538;BME280;41383;51.418;7.286;2022-11-04T08:32:12;98846.44;;;11.31;72.86
55538;BME280;41383;51.418;7.286;2022-11-04T08:34:37;98849.38;;;11.16;73.18
55538;BME280;41383;51.418;7.286;2022-11-04T08:37:02;98849.69;;;11.33;73.17
55538;BME280;41383;51.418;7.286;2022-11-04T08:39:28;98850.22;;;11.36;73.33
55538;BME280;41383;51.418;7.286;2022-11-04T08:41:54;98853.63;;;11.47;73.19
55538;BME280;41383;51.418;7.286;2022-11-04T08:44:20;98850.53;;;11.53;72.22
55538;BME280;41383;51.418;7.286;2022-11-04T08:46:47;98859.63;;;11.68;72.22
55538;BME280;41383;51.418;7.286;2022-11-04T08:49:12;98867.75;;;11.73;71.70
55538;BME280;41383;51.418;7.286;2022-11-04T08:51:41;98853.81;;;11.75;72.01
55538;BME280;41383;51.418;7.286;2022-11-04T08:54:07;98864.94;;;11.78;71.97
55538;BME280;41383;51.418;7.286;2022-11-04T08:56:35;98874.69;;;11.85;71.56
55538;BME280;41383;51.418;7.286;2022-11-04T08:59:02;98867.84;;;11.87;71.78
55538;BME280;41383;51.418;7.286;2022-11-04T09:01:29;98867.69;;;11.98;71.68
55538;BME280;41383;51.418;7.286;2022-11-04T09:03:55;98866.88;;;11.97;70.93
55538;BME280;41383;51.418;7.286;2022-11-04T09:06:25;98871.88;;;11.90;71.40
55538;BME280;41383;51.418;7.286;2022-11-04T09:08:50;98864.34;;;11.62;72.47
55538;BME280;41383;51.418;7.286;2022-11-04T09:11:16;98870.78;;;11.91;71.90
55538;BME280;41383;51.418;7.286;2022-11-04T09:13:42;98878.81;;;12.01;72.09
55538;BME280;41383;51.418;7.286;2022-11-04T09:16:10;98884.50;;;12.05;71.08
55538;BME280;41383;51.418;7.286;2022-11-04T09:18:36;98882.22;;;11.93;71.53
55538;BME280;41383;51.418;7.286;2022-11-04T09:21:03;98883.69;;;12.05;71.11
55538;BME280;41383;51.418;7.286;2022-11-04T09:23:29;98877.13;;;12.06;71.15
55538;BME280;41383;51.418;7.286;2022-11-04T09:25:55;98876.22;;;12.10;70.84
55538;BME280;41383;51.418;7.286;2022-11-04T09:28:21;98874.53;;;12.34;70.43
55538;BME280;41383;51.418;7.286;2022-11-04T09:30:46;98891.75;;;12.34;71.10
55538;BME280;41383;51.418;7.286;2022-11-04T09:33:12;98890.09;;;12.33;71.30
55538;BME280;41383;51.418;7.286;2022-11-04T09:35:37;98899.19;;;12.29;70.75
55538;BME280;41383;51.418;7.286;2022-11-04T09:38:02;98900.53;;;12.31;70.79
55538;BME280;41383;51.418;7.286;2022-11-04T09:40:28;98900.22;;;12.33;71.26
55538;BME280;41383;51.418;7.286;2022-11-04T09:43:03;98891.25;;;12.13;71.41
55538;BME280;41383;51.418;7.286;2022-11-04T09:45:31;98898.63;;;12.32;70.60
55538;BME280;41383;51.418;7.286;2022-11-04T09:48:02;98890.31;;;12.37;71.34
55538;BME280;41383;51.418;7.286;2022-11-04T09:50:31;98888.53;;;12.46;70.63
55538;BME280;41383;51.418;7.286;2022-11-04T09:53:06;98876.41;;;12.53;70.50
55538;BME280;41383;51.418;7.286;2022-11-04T09:55:55;98881.06;;;12.52;70.91
55538;BME280;41383;51.418;7.286;2022-11-04T09:58:21;98880.25;;;12.52;70.84
55538;BME280;41383;51.418;7.286;2022-11-04T10:01:00;98886.75;;;12.56;70.35
55538;BME280;41383;51.418;7.286;2022-11-04T10:03:46;98892.06;;;12.47;70.63
55538;BME280;41383;51.418;7.286;2022-11-04T10:06:29;98888.41;;;12.37;71.33
55538;BME280;41383;51.418;7.286;2022-11-04T10:17:46;98874.72;;;12.57;71.95
55538;BME280;41383;51.418;7.286;2022-11-04T10:20:34;98883.50;;;12.54;73.52
55538;BME280;41383;51.418;7.286;2022-11-04T10:23:20;98894.91;;;12.75;72.91
55538;BME280;41383;51.418;7.286;2022-11-04T10:28:15;98911.34;;;12.89;71.56
55538;BME280;41383;51.418;7.286;2022-11-04T10:30:43;98910.53;;;13.03;71.27
55538;BME280;41383;51.418;7.286;2022-11-04T10:33:34;98908.50;;;13.08;71.46
55538;BME280;41383;51.418;7.286;2022-11-04T10:36:08;98907.28;;;13.01;71.11
55538;BME280;41383;51.418;7.286;2022-11-04T10:38:43;98912.34;;;12.93;70.78
55538;BME280;41383;51.418;7.286;2022-11-04T10:43:45;98908.28;;;12.77;70.61
55538;BME280;41383;51.418;7.286;2022-11-04T10:46:29;98905.00;;;12.60;70.81
55538;BME280;41383;51.418;7.286;2022-11-04T10:49:29;98902.81;;;12.77;70.96
55538;BME280;41383;51.418;7.286;2022-11-04T10:51:58;98905.75;;;12.80;70.87
55538;BME280;41383;51.418;7.286;2022-11-04T10:54:25;98916.78;;;12.75;70.58
55538;BME280;41383;51.418;7.286;2022-11-04T10:56:55;98916.47;;;12.77;70.14
55538;BME280;41383;51.418;7.286;2022-11-04T10:59:24;98919.63;;;12.98;70.52
55538;BME280;41383;51.418;7.286;2022-11-04T11:01:55;98932.75;;;13.15;69.43
55538;BME280;41383;51.418;7.286;2022-11-04T11:04:31;98930.09;;;13.10;69.58
55538;BME280;41383;51.418;7.286;2022-11-04T11:06:59;98935.88;;;13.37;68.30
55538;BME280;41383;51.418;7.286;2022-11-04T11:09:31;98940.97;;;13.29;67.89
55538;BME280;41383;51.418;7.286;2022-11-04T11:12:00;98941.56;;;13.40;68.60
55538;BME280;41383;51.418;7.286;2022-11-04T11:16:51;98951.81;;;13.35;68.39
55538;BME280;41383;51.418;7.286;2022-11-04T11:19:22;98950.09;;;13.25;69.08
55538;BME280;41383;51.418;7.286;2022-11-04T11:21:51;98945.84;;;13.61;67.09
55538;BME280;41383;51.418;7.286;2022-11-04T11:26:49;98940.38;;;13.75;66.34
55538;BME280;41383;51.418;7.286;2022-11-04T11:29:33;98937.34;;;13.62;66.13
55538;BME280;41383;51.418;7.286;2022-11-04T11:32:05;98944.34;;;13.69;66.52
55538;BME280;41383;51.418;7.286;2022-11-04T11:34:43;98944.34;;;13.69;65.76
55538;BME280;41383;51.418;7.286;2022-11-04T11:37:21;98959.63;;;13.41;66.15
55538;BME280;41383;51.418;7.286;2022-11-04T11:39:48;98951.53;;;13.36;66.86
55538;BME280;41383;51.418;7.286;2022-11-04T11:42:14;98958.63;;;13.37;66.53
55538;BME280;41383;51.418;7.286;2022-11-04T11:44:41;98962.66;;;13.12;68.04
55538;BME280;41383;51.418;7.286;2022-11-04T11:47:33;98958.97;;;13.02;68.36
55538;BME280;41383;51.418;7.286;2022-11-04T11:52:38;98965.06;;;13.13;67.62
55538;BME280;41383;51.418;7.286;2022-11-04T11:55:33;98962.19;;;12.90;69.09
55538;BME280;41383;51.418;7.286;2022-11-04T12:00:48;98972.00;;;12.77;69.30
55538;BME280;41383;51.418;7.286;2022-11-04T12:03:22;98971.69;;;12.79;70.16
55538;BME280;41383;51.418;7.286;2022-11-04T12:06:06;98971.69;;;12.79;70.27
55538;BME280;41383;51.418;7.286;2022-11-04T12:08:53;98971.03;;;12.68;69.94
55538;BME280;41383;51.418;7.286;2022-11-04T12:13:55;98975.47;;;12.64;70.44
55538;BME280;41383;51.418;7.286;2022-11-04T12:16:43;98971.81;;;12.54;71.05
55538;BME280;41383;51.418;7.286;2022-11-04T12:19:26;98983.47;;;12.60;71.56
55538;BME280;41383;51.418;7.286;2022-11-04T12:22:23;98980.72;;;12.60;71.74
55538;BME280;41383;51.418;7.286;2022-11-04T12:25:08;98971.91;;;12.82;70.69
55538;BME280;41383;51.418;7.286;2022-11-04T12:27:41;98976.94;;;12.75;70.78
55538;BME280;41383;51.418;7.286;2022-11-04T12:33:09;98966.97;;;12.65;73.35
55538;BME280;41383;51.418;7.286;2022-11-04T12:38:14;98971.78;;;12.88;72.13
55538;BME280;41383;51.418;7.286;2022-11-04T12:40:51;98975.56;;;12.92;72.19
55538;BME280;41383;51.418;7.286;2022-11-04T12:43:27;98979.25;;;13.01;72.46
55538;BME280;41383;51.418;7.286;2022-11-04T12:46:20;98978.56;;;13.10;71.98
55538;BME280;41383;51.418;7.286;2022-11-04T12:49:15;98976.09;;;13.08;71.77
55538;BME280;41383;51.418;7.286;2022-11-04T12:57:29;98984.47;;;13.31;71.24
55538;BME280;41383;51.418;7.286;2022-11-04T13:00:09;98984.50;;;13.59;71.08
55538;BME280;41383;51.418;7.286;2022-11-04T13:02:42;98979.34;;;13.58;71.26
55538;BME280;41383;51.418;7.286;2022-11-04T13:05:24;98985.72;;;13.67;71.03
55538;BME280;41383;51.418;7.286;2022-11-04T13:07:56;98977.09;;;13.60;69.62
55538;BME280;41383;51.418;7.286;2022-11-04T13:10:45;98979.84;;;13.74;68.74
55538;BME280;41383;51.418;7.286;2022-11-04T13:13:14;98985.31;;;13.74;68.25
55538;BME280;41383;51.418;7.286;2022-11-04T13:15:47;98980.34;;;13.62;68.02
55538;BME280;41383;51.418;7.286;2022-11-04T13:18:18;98990.06;;;13.40;69.84
55538;BME280;41383;51.418;7.286;2022-11-04T13:20:50;98982.03;;;13.43;69.11
55538;BME280;41383;51.418;7.286;2022-11-04T13:23:23;98989.63;;;13.47;69.37
55538;BME280;41383;51.418;7.286;2022-11-04T13:25:50;98989.44;;;13.43;70.17
55538;BME280;41383;51.418;7.286;2022-11-04T13:28:19;98990.66;;;13.37;69.79
55538;BME280;41383;51.418;7.286;2022-11-04T13:30:59;98994.31;;;13.32;70.42
55538;BME280;41383;51.418;7.286;2022-11-04T13:34:09;98988.41;;;13.53;69.63
55538;BME280;41383;51.418;7.286;2022-11-04T13:36:46;98998.31;;;13.54;68.72
55538;BME280;41383;51.418;7.286;2022-11-04T13:39:18;98997.88;;;13.61;68.20
55538;BME280;41383;51.418;7.286;2022-11-04T13:44:36;99005.19;;;13.65;68.80
55538;BME280;41383;51.418;7.286;2022-11-04T13:47:13;99012.75;;;13.40;69.23
55538;BME280;41383;51.418;7.286;2022-11-04T13:49:40;99020.75;;;13.37;68.17
55538;BME280;41383;51.418;7.286;2022-11-04T13:52:10;99028.75;;;13.33;70.19
55538;BME280;41383;51.418;7.286;2022-11-04T13:54:51;99028.06;;;13.41;69.77
55538;BME280;41383;51.418;7.286;2022-11-04T13:57:23;99026.44;;;13.40;69.68
55538;BME280;41383;51.418;7.286;2022-11-04T14:08:14;99046.94;;;13.43;68.36
55538;BME280;41383;51.418;7.286;2022-11-04T14:18:49;99061.94;;;13.12;69.79
55538;BME280;41383;51.418;7.286;2022-11-04T14:21:25;99058.31;;;13.17;70.12
55538;BME280;41383;51.418;7.286;2022-11-04T14:23:52;99062.97;;;13.16;69.48
55538;BME280;41383;51.418;7.286;2022-11-04T14:26:22;99066.91;;;13.10;69.63
55538;BME280;41383;51.418;7.286;2022-11-04T14:29:22;99067.44;;;13.12;69.18
55538;BME280;41383;51.418;7.286;2022-11-04T14:31:50;99066.84;;;13.15;69.73
55538;BME280;41383;51.418;7.286;2022-11-04T14:34:25;99080.53;;;13.15;70.13
55538;BME280;41383;51.418;7.286;2022-11-04T14:36:58;99078.38;;;13.12;68.83
55538;BME280;41383;51.418;7.286;2022-11-04T14:39:38;99080.38;;;13.06;68.71
55538;BME280;41383;51.418;7.286;2022-11-04T14:42:04;99084.63;;;12.99;69.15
55538;BME280;41383;51.418;7.286;2022-11-04T14:47:21;99095.72;;;12.88;69.84